sensor_id;sensor_type;location;lat;lon;timestamp;pressure;altitude;pressure_sealevel;temperature
73937;BMP180;59249;59.736;30.568;2023-08-06T00:00:57;101208.00;;;20.70
73937;BMP180;59249;59.736;30.568;2023-08-06T00:03:26;101212.00;;;20.60
73937;BMP180;59249;59.736;30.568;2023-08-06T00:05:55;101212.00;;;20.60
73937;BMP180;59249;59.736;30.568;2023-08-06T00:08:23;101223.00;;;20.60
73937;BMP180;59249;59.736;30.568;2023-08-06T00:10:52;101216.00;;;20.50
73937;BMP180;59249;59.736;30.568;2023-08-06T00:13:22;101218.00;;;20.50
73937;BMP180;59249;59.736;30.568;2023-08-06T00:15:51;101220.00;;;20.50
73937;BMP180;59249;59.736;30.568;2023-08-06T00:18:21;101220.00;;;20.50
73937;BMP180;59249;59.736;30.568;2023-08-06T00:20:52;101228.00;;;20.50
73937;BMP180;59249;59.736;30.568;2023-08-06T00:23:21;101219.00;;;20.50
73937;BMP180;59249;59.736;30.568;2023-08-06T00:25:50;101231.00;;;20.40
73937;BMP180;59249;59.736;30.568;2023-08-06T00:28:18;101224.00;;;20.40
73937;BMP180;59249;59.736;30.568;2023-08-06T00:30:52;101226.00;;;20.40
73937;BMP180;59249;59.736;30.568;2023-08-06T00:33:24;101231.00;;;20.40
73937;BMP180;59249;59.736;30.568;2023-08-06T00:35:53;101230.00;;;20.30
73937;BMP180;59249;59.736;30.568;2023-08-06T00:38:22;101226.00;;;20.30
73937;BMP180;59249;59.736;30.568;2023-08-06T00:40:51;101232.00;;;20.30
73937;BMP180;59249;59.736;30.568;2023-08-06T00:43:20;101238.00;;;20.40
73937;BMP180;59249;59.736;30.568;2023-08-06T00:45:49;101239.00;;;20.40
73937;BMP180;59249;59.736;30.568;2023-08-06T00:48:18;101239.00;;;20.40
73937;BMP180;59249;59.736;30.568;2023-08-06T00:50:50;101243.00;;;20.30
73937;BMP180;59249;59.736;30.568;2023-08-06T00:53:19;101241.00;;;20.20
73937;BMP180;59249;59.736;30.568;2023-08-06T00:55:48;101232.00;;;20.20
73937;BMP180;59249;59.736;30.568;2023-08-06T00:58:17;101222.00;;;20.10
73937;BMP180;59249;59.736;30.568;2023-08-06T01:00:47;101214.00;;;20.10
73937;BMP180;59249;59.736;30.568;2023-08-06T01:03:16;101212.00;;;20.00
73937;BMP180;59249;59.736;30.568;2023-08-06T01:05:45;101216.00;;;20.10
73937;BMP180;59249;59.736;30.568;2023-08-06T01:08:30;101207.00;;;20.10
73937;BMP180;59249;59.736;30.568;2023-08-06T01:11:21;101213.00;;;20.10
73937;BMP180;59249;59.736;30.568;2023-08-06T01:14:10;101211.00;;;20.20
73937;BMP180;59249;59.736;30.568;2023-08-06T01:16:48;101210.00;;;20.20
73937;BMP180;59249;59.736;30.568;2023-08-06T01:19:21;101197.00;;;20.10
73937;BMP180;59249;59.736;30.568;2023-08-06T01:21:51;101198.00;;;20.20
73937;BMP180;59249;59.736;30.568;2023-08-06T01:24:20;101196.00;;;20.10
73937;BMP180;59249;59.736;30.568;2023-08-06T01:26:57;101197.00;;;20.10
73937;BMP180;59249;59.736;30.568;2023-08-06T01:29:35;101202.00;;;20.10
73937;BMP180;59249;59.736;30.568;2023-08-06T01:32:10;101202.00;;;20.20
73937;BMP180;59249;59.736;30.568;2023-08-06T01:34:41;101195.00;;;20.20
73937;BMP180;59249;59.736;30.568;2023-08-06T01:37:16;101204.00;;;20.20
73937;BMP180;59249;59.736;30.568;2023-08-06T01:39:48;101199.00;;;20.30
73937;BMP180;59249;59.736;30.568;2023-08-06T01:42:17;101194.00;;;20.30
73937;BMP180;59249;59.736;30.568;2023-08-06T01:44:47;101189.00;;;20.30
73937;BMP180;59249;59.736;30.568;2023-08-06T01:47:15;101187.00;;;20.20
73937;BMP180;59249;59.736;30.568;2023-08-06T01:49:44;101184.00;;;20.20
73937;BMP180;59249;59.736;30.568;2023-08-06T01:52:14;101182.00;;;20.20
73937;BMP180;59249;59.736;30.568;2023-08-06T01:54:44;101183.00;;;20.20
73937;BMP180;59249;59.736;30.568;2023-08-06T01:57:13;101181.00;;;20.10
73937;BMP180;59249;59.736;30.568;2023-08-06T01:59:42;101179.00;;;20.10
73937;BMP180;59249;59.736;30.568;2023-08-06T02:02:10;101183.00;;;20.10
73937;BMP180;59249;59.736;30.568;2023-08-06T02:04:40;101176.00;;;20.10
73937;BMP180;59249;59.736;30.568;2023-08-06T02:07:09;101177.00;;;20.10
73937;BMP180;59249;59.736;30.568;2023-08-06T02:09:39;101176.00;;;20.10
73937;BMP180;59249;59.736;30.568;2023-08-06T02:12:08;101179.00;;;20.00
73937;BMP180;59249;59.736;30.568;2023-08-06T02:14:37;101174.00;;;20.00
73937;BMP180;59249;59.736;30.568;2023-08-06T02:17:07;101178.00;;;20.00
73937;BMP180;59249;59.736;30.568;2023-08-06T02:19:40;101176.00;;;20.00
73937;BMP180;59249;59.736;30.568;2023-08-06T02:22:10;101178.00;;;20.00
73937;BMP180;59249;59.736;30.568;2023-08-06T02:24:40;101175.00;;;20.00
73937;BMP180;59249;59.736;30.568;2023-08-06T02:27:10;101177.00;;;20.10
73937;BMP180;59249;59.736;30.568;2023-08-06T02:29:40;101180.00;;;20.00
73937;BMP180;59249;59.736;30.568;2023-08-06T02:32:10;101183.00;;;20.00
73937;BMP180;59249;59.736;30.568;2023-08-06T02:34:38;101185.00;;;20.00
73937;BMP180;59249;59.736;30.568;2023-08-06T02:37:07;101192.00;;;20.00
73937;BMP180;59249;59.736;30.568;2023-08-06T02:39:38;101187.00;;;20.00
73937;BMP180;59249;59.736;30.568;2023-08-06T02:42:08;101187.00;;;20.00
73937;BMP180;59249;59.736;30.568;2023-08-06T02:44:39;101189.00;;;19.90
73937;BMP180;59249;59.736;30.568;2023-08-06T02:47:08;101187.00;;;19.90
73937;BMP180;59249;59.736;30.568;2023-08-06T02:49:36;101186.00;;;19.90
73937;BMP180;59249;59.736;30.568;2023-08-06T02:52:06;101186.00;;;19.90
73937;BMP180;59249;59.736;30.568;2023-08-06T02:54:35;101185.00;;;19.80
73937;BMP180;59249;59.736;30.568;2023-08-06T02:57:07;101188.00;;;19.80
73937;BMP180;59249;59.736;30.568;2023-08-06T02:59:36;101186.00;;;19.80
73937;BMP180;59249;59.736;30.568;2023-08-06T03:02:12;101189.00;;;19.80
73937;BMP180;59249;59.736;30.568;2023-08-06T03:04:57;101181.00;;;19.70
73937;BMP180;59249;59.736;30.568;2023-08-06T03:07:31;101187.00;;;19.70
73937;BMP180;59249;59.736;30.568;2023-08-06T03:10:07;101189.00;;;19.80
73937;BMP180;59249;59.736;30.568;2023-08-06T03:12:38;101182.00;;;19.80
73937;BMP180;59249;59.736;30.568;2023-08-06T03:15:10;101170.00;;;19.80
73937;BMP180;59249;59.736;30.568;2023-08-06T03:17:42;101176.00;;;19.70
73937;BMP180;59249;59.736;30.568;2023-08-06T03:20:12;101175.00;;;19.70
73937;BMP180;59249;59.736;30.568;2023-08-06T03:22:41;101175.00;;;19.70
73937;BMP180;59249;59.736;30.568;2023-08-06T03:25:10;101182.00;;;19.70
73937;BMP180;59249;59.736;30.568;2023-08-06T03:27:44;101186.00;;;19.70
73937;BMP180;59249;59.736;30.568;2023-08-06T03:30:20;101177.00;;;19.70
73937;BMP180;59249;59.736;30.568;2023-08-06T03:32:51;101172.00;;;19.80
73937;BMP180;59249;59.736;30.568;2023-08-06T03:35:21;101170.00;;;19.70
73937;BMP180;59249;59.736;30.568;2023-08-06T03:37:50;101164.00;;;19.70
73937;BMP180;59249;59.736;30.568;2023-08-06T03:40:19;101167.00;;;19.70
73937;BMP180;59249;59.736;30.568;2023-08-06T03:42:49;101154.00;;;19.70
73937;BMP180;59249;59.736;30.568;2023-08-06T03:45:19;101134.00;;;19.70
73937;BMP180;59249;59.736;30.568;2023-08-06T03:47:49;101127.00;;;19.60
73937;BMP180;59249;59.736;30.568;2023-08-06T03:50:18;101108.00;;;19.50
73937;BMP180;59249;59.736;30.568;2023-08-06T03:52:47;101112.00;;;19.60
73937;BMP180;59249;59.736;30.568;2023-08-06T03:55:15;101121.00;;;19.60
73937;BMP180;59249;59.736;30.568;2023-08-06T03:57:46;101120.00;;;19.50
73937;BMP180;59249;59.736;30.568;2023-08-06T04:00:17;101108.00;;;19.60
73937;BMP180;59249;59.736;30.568;2023-08-06T04:02:51;101110.00;;;19.60
73937;BMP180;59249;59.736;30.568;2023-08-06T04:05:20;101114.00;;;19.60
73937;BMP180;59249;59.736;30.568;2023-08-06T04:08:02;101124.00;;;19.70
73937;BMP180;59249;59.736;30.568;2023-08-06T04:10:33;101121.00;;;19.70
73937;BMP180;59249;59.736;30.568;2023-08-06T04:13:04;101125.00;;;19.70
73937;BMP180;59249;59.736;30.568;2023-08-06T04:16:08;101121.00;;;19.70
73937;BMP180;59249;59.736;30.568;2023-08-06T04:18:45;101126.00;;;19.60
73937;BMP180;59249;59.736;30.568;2023-08-06T04:21:16;101117.00;;;19.60
73937;BMP180;59249;59.736;30.568;2023-08-06T04:23:47;101130.00;;;19.60
73937;BMP180;59249;59.736;30.568;2023-08-06T04:26:18;101125.00;;;19.60
73937;BMP180;59249;59.736;30.568;2023-08-06T04:28:46;101123.00;;;19.60
73937;BMP180;59249;59.736;30.568;2023-08-06T04:31:17;101116.00;;;19.60
73937;BMP180;59249;59.736;30.568;2023-08-06T04:33:46;101112.00;;;19.60
73937;BMP180;59249;59.736;30.568;2023-08-06T04:36:16;101129.00;;;19.60
73937;BMP180;59249;59.736;30.568;2023-08-06T04:38:45;101125.00;;;19.70
73937;BMP180;59249;59.736;30.568;2023-08-06T04:41:16;101129.00;;;19.70
73937;BMP180;59249;59.736;30.568;2023-08-06T04:43:45;101131.00;;;19.70
73937;BMP180;59249;59.736;30.568;2023-08-06T04:46:14;101133.00;;;19.70
73937;BMP180;59249;59.736;30.568;2023-08-06T04:48:44;101136.00;;;19.60
73937;BMP180;59249;59.736;30.568;2023-08-06T04:51:13;101130.00;;;19.60
73937;BMP180;59249;59.736;30.568;2023-08-06T04:53:41;101126.00;;;19.60
73937;BMP180;59249;59.736;30.568;2023-08-06T04:56:10;101126.00;;;19.60
73937;BMP180;59249;59.736;30.568;2023-08-06T04:58:39;101133.00;;;19.60
73937;BMP180;59249;59.736;30.568;2023-08-06T05:01:07;101133.00;;;19.70
73937;BMP180;59249;59.736;30.568;2023-08-06T05:03:36;101133.00;;;19.70
73937;BMP180;59249;59.736;30.568;2023-08-06T05:06:07;101125.00;;;19.80
73937;BMP180;59249;59.736;30.568;2023-08-06T05:08:35;101115.00;;;19.80
73937;BMP180;59249;59.736;30.568;2023-08-06T05:11:04;101110.00;;;19.80
73937;BMP180;59249;59.736;30.568;2023-08-06T05:13:33;101116.00;;;19.80
73937;BMP180;59249;59.736;30.568;2023-08-06T05:16:04;101111.00;;;19.80
73937;BMP180;59249;59.736;30.568;2023-08-06T05:18:34;101110.00;;;20.00
73937;BMP180;59249;59.736;30.568;2023-08-06T05:21:04;101108.00;;;19.80
73937;BMP180;59249;59.736;30.568;2023-08-06T05:23:34;101089.00;;;20.00
73937;BMP180;59249;59.736;30.568;2023-08-06T05:26:03;101089.00;;;19.90
73937;BMP180;59249;59.736;30.568;2023-08-06T05:28:32;101081.00;;;20.00
73937;BMP180;59249;59.736;30.568;2023-08-06T05:31:03;101072.00;;;20.10
73937;BMP180;59249;59.736;30.568;2023-08-06T05:33:32;101074.00;;;20.10
73937;BMP180;59249;59.736;30.568;2023-08-06T05:36:01;101075.00;;;20.20
73937;BMP180;59249;59.736;30.568;2023-08-06T05:38:30;101063.00;;;20.20
73937;BMP180;59249;59.736;30.568;2023-08-06T05:41:00;101072.00;;;20.30
73937;BMP180;59249;59.736;30.568;2023-08-06T05:43:29;101071.00;;;20.20
73937;BMP180;59249;59.736;30.568;2023-08-06T05:45:58;101070.00;;;20.20
73937;BMP180;59249;59.736;30.568;2023-08-06T05:48:26;101065.00;;;20.30
73937;BMP180;59249;59.736;30.568;2023-08-06T05:50:55;101063.00;;;20.40
73937;BMP180;59249;59.736;30.568;2023-08-06T05:53:24;101062.00;;;20.50
73937;BMP180;59249;59.736;30.568;2023-08-06T05:55:53;101060.00;;;20.60
73937;BMP180;59249;59.736;30.568;2023-08-06T05:58:23;101060.00;;;20.70
73937;BMP180;59249;59.736;30.568;2023-08-06T06:00:55;101064.00;;;20.80
73937;BMP180;59249;59.736;30.568;2023-08-06T06:03:24;101062.00;;;20.90
73937;BMP180;59249;59.736;30.568;2023-08-06T06:05:53;101055.00;;;21.00
73937;BMP180;59249;59.736;30.568;2023-08-06T06:08:22;101048.00;;;21.00
73937;BMP180;59249;59.736;30.568;2023-08-06T06:10:51;101052.00;;;21.00
73937;BMP180;59249;59.736;30.568;2023-08-06T06:13:20;101054.00;;;21.10
73937;BMP180;59249;59.736;30.568;2023-08-06T06:15:54;101060.00;;;21.20
73937;BMP180;59249;59.736;30.568;2023-08-06T06:18:23;101054.00;;;21.40
73937;BMP180;59249;59.736;30.568;2023-08-06T06:20:52;101067.00;;;21.50
73937;BMP180;59249;59.736;30.568;2023-08-06T06:23:21;101046.00;;;21.60
73937;BMP180;59249;59.736;30.568;2023-08-06T06:25:50;101041.00;;;21.60
73937;BMP180;59249;59.736;30.568;2023-08-06T06:28:19;101043.00;;;21.70
73937;BMP180;59249;59.736;30.568;2023-08-06T06:30:48;101047.00;;;21.60
73937;BMP180;59249;59.736;30.568;2023-08-06T06:33:18;101042.00;;;21.60
73937;BMP180;59249;59.736;30.568;2023-08-06T06:35:47;101053.00;;;21.60
73937;BMP180;59249;59.736;30.568;2023-08-06T06:38:18;101041.00;;;21.80
73937;BMP180;59249;59.736;30.568;2023-08-06T06:40:53;101038.00;;;21.90
73937;BMP180;59249;59.736;30.568;2023-08-06T06:43:22;101031.00;;;22.10
73937;BMP180;59249;59.736;30.568;2023-08-06T06:45:56;101026.00;;;22.10
73937;BMP180;59249;59.736;30.568;2023-08-06T06:48:28;101030.00;;;22.20
73937;BMP180;59249;59.736;30.568;2023-08-06T06:50:57;101019.00;;;22.20
73937;BMP180;59249;59.736;30.568;2023-08-06T06:53:27;101034.00;;;22.30
73937;BMP180;59249;59.736;30.568;2023-08-06T06:55:56;101037.00;;;22.40
73937;BMP180;59249;59.736;30.568;2023-08-06T06:58:30;101039.00;;;22.60
73937;BMP180;59249;59.736;30.568;2023-08-06T07:00:59;101046.00;;;22.80
73937;BMP180;59249;59.736;30.568;2023-08-06T07:03:29;101040.00;;;22.90
73937;BMP180;59249;59.736;30.568;2023-08-06T07:05:58;101035.00;;;23.00
73937;BMP180;59249;59.736;30.568;2023-08-06T07:08:27;101031.00;;;23.00
73937;BMP180;59249;59.736;30.568;2023-08-06T07:11:00;101025.00;;;23.00
73937;BMP180;59249;59.736;30.568;2023-08-06T07:13:30;101018.00;;;22.90
73937;BMP180;59249;59.736;30.568;2023-08-06T07:15:59;101010.00;;;22.80
73937;BMP180;59249;59.736;30.568;2023-08-06T07:18:29;101014.00;;;22.90
73937;BMP180;59249;59.736;30.568;2023-08-06T07:20:58;101020.00;;;22.80
73937;BMP180;59249;59.736;30.568;2023-08-06T07:23:27;101021.00;;;22.80
73937;BMP180;59249;59.736;30.568;2023-08-06T07:25:56;101021.00;;;22.70
73937;BMP180;59249;59.736;30.568;2023-08-06T07:28:25;101023.00;;;22.80
73937;BMP180;59249;59.736;30.568;2023-08-06T07:30:54;101021.00;;;22.80
73937;BMP180;59249;59.736;30.568;2023-08-06T07:33:22;101027.00;;;22.90
73937;BMP180;59249;59.736;30.568;2023-08-06T07:35:53;101034.00;;;23.00
73937;BMP180;59249;59.736;30.568;2023-08-06T07:38:21;101022.00;;;22.90
73937;BMP180;59249;59.736;30.568;2023-08-06T07:40:50;101037.00;;;23.10
73937;BMP180;59249;59.736;30.568;2023-08-06T07:43:19;101036.00;;;23.30
73937;BMP180;59249;59.736;30.568;2023-08-06T07:45:48;101023.00;;;23.20
73937;BMP180;59249;59.736;30.568;2023-08-06T07:48:17;101036.00;;;23.40
73937;BMP180;59249;59.736;30.568;2023-08-06T07:50:45;101038.00;;;23.60
73937;BMP180;59249;59.736;30.568;2023-08-06T07:53:19;101047.00;;;23.70
73937;BMP180;59249;59.736;30.568;2023-08-06T07:55:50;101044.00;;;23.70
73937;BMP180;59249;59.736;30.568;2023-08-06T07:58:19;101046.00;;;23.70
73937;BMP180;59249;59.736;30.568;2023-08-06T08:00:49;101042.00;;;23.70
73937;BMP180;59249;59.736;30.568;2023-08-06T08:03:17;101046.00;;;23.70
73937;BMP180;59249;59.736;30.568;2023-08-06T08:05:47;101041.00;;;23.70
73937;BMP180;59249;59.736;30.568;2023-08-06T08:08:16;101051.00;;;23.60
73937;BMP180;59249;59.736;30.568;2023-08-06T08:10:46;101047.00;;;23.60
73937;BMP180;59249;59.736;30.568;2023-08-06T08:13:14;101041.00;;;23.40
73937;BMP180;59249;59.736;30.568;2023-08-06T08:15:44;101038.00;;;23.60
73937;BMP180;59249;59.736;30.568;2023-08-06T08:18:13;101030.00;;;23.60
73937;BMP180;59249;59.736;30.568;2023-08-06T08:20:44;101039.00;;;23.60
73937;BMP180;59249;59.736;30.568;2023-08-06T08:23:15;101048.00;;;23.70
73937;BMP180;59249;59.736;30.568;2023-08-06T08:25:45;101038.00;;;23.80
73937;BMP180;59249;59.736;30.568;2023-08-06T08:28:14;101040.00;;;24.00
73937;BMP180;59249;59.736;30.568;2023-08-06T08:30:43;101034.00;;;24.00
73937;BMP180;59249;59.736;30.568;2023-08-06T08:33:12;101031.00;;;24.10
73937;BMP180;59249;59.736;30.568;2023-08-06T08:35:41;101030.00;;;24.10
73937;BMP180;59249;59.736;30.568;2023-08-06T08:38:09;101026.00;;;24.10
73937;BMP180;59249;59.736;30.568;2023-08-06T08:40:44;101030.00;;;24.30
73937;BMP180;59249;59.736;30.568;2023-08-06T08:43:18;101034.00;;;24.30
73937;BMP180;59249;59.736;30.568;2023-08-06T08:45:50;101022.00;;;24.40
73937;BMP180;59249;59.736;30.568;2023-08-06T08:48:22;101020.00;;;24.40
73937;BMP180;59249;59.736;30.568;2023-08-06T08:50:53;101015.00;;;24.20
73937;BMP180;59249;59.736;30.568;2023-08-06T08:53:22;101016.00;;;24.30
73937;BMP180;59249;59.736;30.568;2023-08-06T08:55:52;101004.00;;;24.30
73937;BMP180;59249;59.736;30.568;2023-08-06T08:58:22;101010.00;;;24.50
73937;BMP180;59249;59.736;30.568;2023-08-06T09:00:51;101005.00;;;24.70
73937;BMP180;59249;59.736;30.568;2023-08-06T09:03:21;101005.00;;;24.70
73937;BMP180;59249;59.736;30.568;2023-08-06T09:05:53;101008.00;;;24.80
73937;BMP180;59249;59.736;30.568;2023-08-06T09:08:27;101027.00;;;24.80
73937;BMP180;59249;59.736;30.568;2023-08-06T09:11:04;101031.00;;;24.90
73937;BMP180;59249;59.736;30.568;2023-08-06T09:13:33;101028.00;;;25.00
73937;BMP180;59249;59.736;30.568;2023-08-06T09:16:04;101031.00;;;25.20
73937;BMP180;59249;59.736;30.568;2023-08-06T09:18:33;101031.00;;;25.40
73937;BMP180;59249;59.736;30.568;2023-08-06T09:21:01;101031.00;;;25.50
73937;BMP180;59249;59.736;30.568;2023-08-06T09:23:31;101025.00;;;25.60
73937;BMP180;59249;59.736;30.568;2023-08-06T09:26:00;101032.00;;;25.70
73937;BMP180;59249;59.736;30.568;2023-08-06T09:28:38;101027.00;;;25.70
73937;BMP180;59249;59.736;30.568;2023-08-06T09:31:09;101019.00;;;25.90
73937;BMP180;59249;59.736;30.568;2023-08-06T09:33:38;101017.00;;;26.00
73937;BMP180;59249;59.736;30.568;2023-08-06T09:36:08;101018.00;;;26.10
73937;BMP180;59249;59.736;30.568;2023-08-06T09:38:38;101008.00;;;26.20
73937;BMP180;59249;59.736;30.568;2023-08-06T09:41:08;101008.00;;;26.40
73937;BMP180;59249;59.736;30.568;2023-08-06T09:43:42;101013.00;;;26.60
73937;BMP180;59249;59.736;30.568;2023-08-06T09:46:12;101003.00;;;26.70
73937;BMP180;59249;59.736;30.568;2023-08-06T09:48:47;101002.00;;;26.80
73937;BMP180;59249;59.736;30.568;2023-08-06T09:51:17;100996.00;;;26.80
73937;BMP180;59249;59.736;30.568;2023-08-06T09:53:47;100998.00;;;26.80
73937;BMP180;59249;59.736;30.568;2023-08-06T09:56:18;100997.00;;;26.80
73937;BMP180;59249;59.736;30.568;2023-08-06T09:58:48;101000.00;;;26.70
73937;BMP180;59249;59.736;30.568;2023-08-06T10:01:19;100998.00;;;26.70
73937;BMP180;59249;59.736;30.568;2023-08-06T10:03:49;100991.00;;;26.70
73937;BMP180;59249;59.736;30.568;2023-08-06T10:06:20;100987.00;;;26.70
73937;BMP180;59249;59.736;30.568;2023-08-06T10:08:50;100987.00;;;26.60
73937;BMP180;59249;59.736;30.568;2023-08-06T10:11:21;100984.00;;;26.70
73937;BMP180;59249;59.736;30.568;2023-08-06T10:13:57;100984.00;;;26.60
73937;BMP180;59249;59.736;30.568;2023-08-06T10:16:31;100987.00;;;26.50
73937;BMP180;59249;59.736;30.568;2023-08-06T10:19:01;100999.00;;;26.40
73937;BMP180;59249;59.736;30.568;2023-08-06T10:21:32;100980.00;;;26.40
73937;BMP180;59249;59.736;30.568;2023-08-06T10:24:01;100983.00;;;26.50
73937;BMP180;59249;59.736;30.568;2023-08-06T10:26:30;100994.00;;;26.60
73937;BMP180;59249;59.736;30.568;2023-08-06T10:29:01;100989.00;;;26.70
73937;BMP180;59249;59.736;30.568;2023-08-06T10:31:53;100989.00;;;26.70
73937;BMP180;59249;59.736;30.568;2023-08-06T10:34:22;100994.00;;;26.90
73937;BMP180;59249;59.736;30.568;2023-08-06T10:36:54;100985.00;;;27.00
73937;BMP180;59249;59.736;30.568;2023-08-06T10:39:23;100987.00;;;27.10
73937;BMP180;59249;59.736;30.568;2023-08-06T10:41:57;100986.00;;;27.20
73937;BMP180;59249;59.736;30.568;2023-08-06T10:44:28;100979.00;;;27.30
73937;BMP180;59249;59.736;30.568;2023-08-06T10:47:26;100983.00;;;27.50
73937;BMP180;59249;59.736;30.568;2023-08-06T10:49:55;100980.00;;;27.40
73937;BMP180;59249;59.736;30.568;2023-08-06T10:52:25;100983.00;;;27.50
73937;BMP180;59249;59.736;30.568;2023-08-06T10:54:54;100985.00;;;27.60
73937;BMP180;59249;59.736;30.568;2023-08-06T10:57:24;100986.00;;;27.60
73937;BMP180;59249;59.736;30.568;2023-08-06T10:59:54;100985.00;;;27.60
73937;BMP180;59249;59.736;30.568;2023-08-06T11:02:41;100981.00;;;27.70
73937;BMP180;59249;59.736;30.568;2023-08-06T11:05:11;100984.00;;;27.90
73937;BMP180;59249;59.736;30.568;2023-08-06T11:07:40;100977.00;;;27.80
73937;BMP180;59249;59.736;30.568;2023-08-06T11:10:11;100983.00;;;27.90
73937;BMP180;59249;59.736;30.568;2023-08-06T11:12:40;100980.00;;;27.90
73937;BMP180;59249;59.736;30.568;2023-08-06T11:15:11;100979.00;;;27.90
73937;BMP180;59249;59.736;30.568;2023-08-06T11:17:40;100976.00;;;27.80
73937;BMP180;59249;59.736;30.568;2023-08-06T11:20:12;100979.00;;;28.00
73937;BMP180;59249;59.736;30.568;2023-08-06T11:22:44;100984.00;;;28.00
73937;BMP180;59249;59.736;30.568;2023-08-06T11:25:12;100971.00;;;28.00
73937;BMP180;59249;59.736;30.568;2023-08-06T11:27:41;100971.00;;;28.00
73937;BMP180;59249;59.736;30.568;2023-08-06T11:30:12;100976.00;;;28.20
73937;BMP180;59249;59.736;30.568;2023-08-06T11:32:47;100973.00;;;28.30
73937;BMP180;59249;59.736;30.568;2023-08-06T11:35:19;100966.00;;;28.50
73937;BMP180;59249;59.736;30.568;2023-08-06T11:37:48;100968.00;;;28.60
73937;BMP180;59249;59.736;30.568;2023-08-06T11:40:17;100962.00;;;28.60
73937;BMP180;59249;59.736;30.568;2023-08-06T11:42:46;100966.00;;;28.50
73937;BMP180;59249;59.736;30.568;2023-08-06T11:45:21;100967.00;;;28.70
73937;BMP180;59249;59.736;30.568;2023-08-06T11:47:51;100959.00;;;28.70
73937;BMP180;59249;59.736;30.568;2023-08-06T11:50:25;100960.00;;;28.90
73937;BMP180;59249;59.736;30.568;2023-08-06T11:52:56;100954.00;;;29.00
73937;BMP180;59249;59.736;30.568;2023-08-06T11:55:28;100957.00;;;29.10
73937;BMP180;59249;59.736;30.568;2023-08-06T11:57:57;100957.00;;;29.00
73937;BMP180;59249;59.736;30.568;2023-08-06T12:00:28;100953.00;;;29.20
73937;BMP180;59249;59.736;30.568;2023-08-06T12:02:57;100947.00;;;28.90
73937;BMP180;59249;59.736;30.568;2023-08-06T12:05:29;100947.00;;;29.00
73937;BMP180;59249;59.736;30.568;2023-08-06T12:08:02;100945.00;;;29.00
73937;BMP180;59249;59.736;30.568;2023-08-06T12:10:32;100948.00;;;29.10
73937;BMP180;59249;59.736;30.568;2023-08-06T12:13:01;100947.00;;;29.30
73937;BMP180;59249;59.736;30.568;2023-08-06T12:15:32;100950.00;;;29.50
73937;BMP180;59249;59.736;30.568;2023-08-06T12:18:01;100949.00;;;29.60
73937;BMP180;59249;59.736;30.568;2023-08-06T12:20:29;100950.00;;;29.60
73937;BMP180;59249;59.736;30.568;2023-08-06T12:23:01;100948.00;;;29.50
73937;BMP180;59249;59.736;30.568;2023-08-06T12:25:30;100951.00;;;29.60
73937;BMP180;59249;59.736;30.568;2023-08-06T12:27:58;100948.00;;;29.80
73937;BMP180;59249;59.736;30.568;2023-08-06T12:30:27;100947.00;;;29.90
73937;BMP180;59249;59.736;30.568;2023-08-06T12:32:57;100945.00;;;30.00
73937;BMP180;59249;59.736;30.568;2023-08-06T12:35:26;100937.00;;;30.10
73937;BMP180;59249;59.736;30.568;2023-08-06T12:37:55;100942.00;;;30.10
73937;BMP180;59249;59.736;30.568;2023-08-06T12:40:25;100936.00;;;30.20
73937;BMP180;59249;59.736;30.568;2023-08-06T12:43:04;100931.00;;;30.30
73937;BMP180;59249;59.736;30.568;2023-08-06T12:45:33;100927.00;;;30.20
73937;BMP180;59249;59.736;30.568;2023-08-06T12:48:04;100923.00;;;30.30
73937;BMP180;59249;59.736;30.568;2023-08-06T12:50:32;100928.00;;;30.40
73937;BMP180;59249;59.736;30.568;2023-08-06T12:53:14;100924.00;;;30.30
73937;BMP180;59249;59.736;30.568;2023-08-06T12:55:43;100917.00;;;30.40
73937;BMP180;59249;59.736;30.568;2023-08-06T12:58:11;100917.00;;;30.30
73937;BMP180;59249;59.736;30.568;2023-08-06T13:00:40;100911.00;;;30.20
73937;BMP180;59249;59.736;30.568;2023-08-06T13:03:10;100915.00;;;30.20
73937;BMP180;59249;59.736;30.568;2023-08-06T13:05:40;100913.00;;;30.00
73937;BMP180;59249;59.736;30.568;2023-08-06T13:08:10;100891.00;;;29.70
73937;BMP180;59249;59.736;30.568;2023-08-06T13:10:38;100907.00;;;29.90
73937;BMP180;59249;59.736;30.568;2023-08-06T13:13:10;100899.00;;;29.80
73937;BMP180;59249;59.736;30.568;2023-08-06T13:15:39;100890.00;;;29.90
73937;BMP180;59249;59.736;30.568;2023-08-06T13:18:08;100899.00;;;29.80
73937;BMP180;59249;59.736;30.568;2023-08-06T13:20:38;100895.00;;;29.80
73937;BMP180;59249;59.736;30.568;2023-08-06T13:23:08;100891.00;;;29.80
73937;BMP180;59249;59.736;30.568;2023-08-06T13:25:36;100902.00;;;30.00
73937;BMP180;59249;59.736;30.568;2023-08-06T13:28:06;100897.00;;;30.10
73937;BMP180;59249;59.736;30.568;2023-08-06T13:30:35;100897.00;;;30.00
73937;BMP180;59249;59.736;30.568;2023-08-06T13:33:10;100896.00;;;30.10
73937;BMP180;59249;59.736;30.568;2023-08-06T13:35:39;100897.00;;;30.20
73937;BMP180;59249;59.736;30.568;2023-08-06T13:38:08;100889.00;;;30.30
73937;BMP180;59249;59.736;30.568;2023-08-06T13:40:37;100900.00;;;30.20
73937;BMP180;59249;59.736;30.568;2023-08-06T13:43:07;100901.00;;;30.30
73937;BMP180;59249;59.736;30.568;2023-08-06T13:45:36;100893.00;;;30.10
73937;BMP180;59249;59.736;30.568;2023-08-06T13:48:05;100902.00;;;30.00
73937;BMP180;59249;59.736;30.568;2023-08-06T13:50:37;100896.00;;;29.90
73937;BMP180;59249;59.736;30.568;2023-08-06T13:53:07;100894.00;;;29.80
73937;BMP180;59249;59.736;30.568;2023-08-06T13:55:36;100890.00;;;29.80
73937;BMP180;59249;59.736;30.568;2023-08-06T13:58:04;100892.00;;;29.80
73937;BMP180;59249;59.736;30.568;2023-08-06T14:00:33;100886.00;;;29.50
73937;BMP180;59249;59.736;30.568;2023-08-06T14:03:02;100887.00;;;29.70